sensor_id;sensor_type;location;lat;lon;timestamp;P1;durP1;ratioP1;P2;durP2;ratioP2
75550;SDS011;65071;53.082;18.218;2024-01-16T00:01:26;0.70;;;0.20;;
75550;SDS011;65071;53.082;18.218;2024-01-16T00:03:53;0.80;;;0.60;;
75550;SDS011;65071;53.082;18.218;2024-01-16T00:06:19;2.10;;;0.70;;
75550;SDS011;65071;53.082;18.218;2024-01-16T00:08:45;0.90;;;0.50;;
75550;SDS011;65071;53.082;18.218;2024-01-16T00:11:11;0.80;;;0.40;;
75550;SDS011;65071;53.082;18.218;2024-01-16T00:13:38;2.00;;;0.40;;
75550;SDS011;65071;53.082;18.218;2024-01-16T00:16:04;1.30;;;0.50;;
75550;SDS011;65071;53.082;18.218;2024-01-16T00:18:31;0.90;;;0.40;;
75550;SDS011;65071;53.082;18.218;2024-01-16T00:21:00;1.10;;;0.40;;
75550;SDS011;65071;53.082;18.218;2024-01-16T00:23:28;1.80;;;0.70;;
75550;SDS011;65071;53.082;18.218;2024-01-16T00:25:54;0.80;;;0.40;;
75550;SDS011;65071;53.082;18.218;2024-01-16T00:28:21;1.10;;;0.50;;
75550;SDS011;65071;53.082;18.218;2024-01-16T00:30:47;1.60;;;0.40;;
75550;SDS011;65071;53.082;18.218;2024-01-16T00:33:13;1.90;;;0.50;;
75550;SDS011;65071;53.082;18.218;2024-01-16T00:35:40;1.80;;;0.40;;
75550;SDS011;65071;53.082;18.218;2024-01-16T00:38:07;1.80;;;0.40;;
75550;SDS011;65071;53.082;18.218;2024-01-16T00:40:33;0.50;;;0.40;;
75550;SDS011;65071;53.082;18.218;2024-01-16T00:42:59;0.40;;;0.30;;
75550;SDS011;65071;53.082;18.218;2024-01-16T00:45:26;0.20;;;0.20;;
75550;SDS011;65071;53.082;18.218;2024-01-16T00:47:53;0.60;;;0.20;;
75550;SDS011;65071;53.082;18.218;2024-01-16T00:50:19;1.00;;;0.40;;
75550;SDS011;65071;53.082;18.218;2024-01-16T00:52:45;4.10;;;0.50;;
75550;SDS011;65071;53.082;18.218;2024-01-16T00:55:11;0.70;;;0.20;;
75550;SDS011;65071;53.082;18.218;2024-01-16T00:57:37;1.20;;;0.30;;
75550;SDS011;65071;53.082;18.218;2024-01-16T01:00:05;0.60;;;0.30;;
75550;SDS011;65071;53.082;18.218;2024-01-16T01:02:31;0.40;;;0.30;;
75550;SDS011;65071;53.082;18.218;2024-01-16T01:04:58;0.70;;;0.20;;
75550;SDS011;65071;53.082;18.218;2024-01-16T01:07:24;1.70;;;0.40;;
75550;SDS011;65071;53.082;18.218;2024-01-16T01:09:51;2.20;;;0.40;;
75550;SDS011;65071;53.082;18.218;2024-01-16T01:12:18;1.00;;;0.50;;
75550;SDS011;65071;53.082;18.218;2024-01-16T01:14:44;1.80;;;0.70;;
75550;SDS011;65071;53.082;18.218;2024-01-16T01:17:11;1.60;;;0.60;;
75550;SDS011;65071;53.082;18.218;2024-01-16T01:19:37;1.30;;;0.50;;
75550;SDS011;65071;53.082;18.218;2024-01-16T01:22:05;3.00;;;0.70;;
75550;SDS011;65071;53.082;18.218;2024-01-16T01:24:31;2.50;;;0.70;;
75550;SDS011;65071;53.082;18.218;2024-01-16T01:26:57;1.20;;;0.40;;
75550;SDS011;65071;53.082;18.218;2024-01-16T01:29:24;0.70;;;0.40;;
75550;SDS011;65071;53.082;18.218;2024-01-16T01:31:51;2.40;;;0.70;;
75550;SDS011;65071;53.082;18.218;2024-01-16T01:34:18;0.90;;;0.30;;
75550;SDS011;65071;53.082;18.218;2024-01-16T01:36:44;2.00;;;0.70;;
75550;SDS011;65071;53.082;18.218;2024-01-16T01:39:10;0.70;;;0.30;;
75550;SDS011;65071;53.082;18.218;2024-01-16T01:41:37;1.70;;;0.50;;
75550;SDS011;65071;53.082;18.218;2024-01-16T01:44:05;1.50;;;0.40;;
75550;SDS011;65071;53.082;18.218;2024-01-16T01:46:32;1.60;;;0.50;;
75550;SDS011;65071;53.082;18.218;2024-01-16T01:49:00;1.40;;;0.40;;
75550;SDS011;65071;53.082;18.218;2024-01-16T01:51:27;2.50;;;0.50;;
75550;SDS011;65071;53.082;18.218;2024-01-16T01:53:53;1.40;;;0.40;;
75550;SDS011;65071;53.082;18.218;2024-01-16T01:56:20;0.30;;;0.20;;
75550;SDS011;65071;53.082;18.218;2024-01-16T01:58:48;2.20;;;0.40;;
75550;SDS011;65071;53.082;18.218;2024-01-16T02:01:18;0.40;;;0.20;;
75550;SDS011;65071;53.082;18.218;2024-01-16T02:03:47;1.80;;;0.40;;
75550;SDS011;65071;53.082;18.218;2024-01-16T02:06:16;0.80;;;0.30;;
75550;SDS011;65071;53.082;18.218;2024-01-16T02:08:42;0.40;;;0.30;;
75550;SDS011;65071;53.082;18.218;2024-01-16T02:11:10;1.30;;;0.30;;
75550;SDS011;65071;53.082;18.218;2024-01-16T02:13:36;0.40;;;0.20;;
75550;SDS011;65071;53.082;18.218;2024-01-16T02:16:03;0.90;;;0.20;;
75550;SDS011;65071;53.082;18.218;2024-01-16T02:18:31;1.20;;;0.20;;
75550;SDS011;65071;53.082;18.218;2024-01-16T02:21:01;1.60;;;0.30;;
75550;SDS011;65071;53.082;18.218;2024-01-16T02:23:30;0.40;;;0.40;;
75550;SDS011;65071;53.082;18.218;2024-01-16T02:25:57;0.20;;;0.20;;
75550;SDS011;65071;53.082;18.218;2024-01-16T02:28:24;1.40;;;0.40;;
75550;SDS011;65071;53.082;18.218;2024-01-16T02:30:50;1.00;;;0.30;;
75550;SDS011;65071;53.082;18.218;2024-01-16T02:33:17;0.20;;;0.20;;
75550;SDS011;65071;53.082;18.218;2024-01-16T02:35:43;1.70;;;0.20;;
75550;SDS011;65071;53.082;18.218;2024-01-16T02:38:09;0.70;;;0.20;;
75550;SDS011;65071;53.082;18.218;2024-01-16T02:40:36;0.20;;;0.10;;
75550;SDS011;65071;53.082;18.218;2024-01-16T02:43:02;1.10;;;0.20;;
75550;SDS011;65071;53.082;18.218;2024-01-16T02:45:28;0.80;;;0.30;;
75550;SDS011;65071;53.082;18.218;2024-01-16T02:47:54;0.40;;;0.10;;
75550;SDS011;65071;53.082;18.218;2024-01-16T02:50:21;2.00;;;0.30;;
75550;SDS011;65071;53.082;18.218;2024-01-16T02:52:48;1.80;;;0.30;;
75550;SDS011;65071;53.082;18.218;2024-01-16T02:55:14;0.70;;;0.20;;
75550;SDS011;65071;53.082;18.218;2024-01-16T02:57:40;0.60;;;0.20;;
75550;SDS011;65071;53.082;18.218;2024-01-16T03:00:07;1.20;;;0.20;;
75550;SDS011;65071;53.082;18.218;2024-01-16T03:02:34;1.00;;;0.30;;
75550;SDS011;65071;53.082;18.218;2024-01-16T03:05:02;0.30;;;0.20;;
75550;SDS011;65071;53.082;18.218;2024-01-16T03:07:29;0.90;;;0.40;;
75550;SDS011;65071;53.082;18.218;2024-01-16T03:09:55;0.40;;;0.20;;
75550;SDS011;65071;53.082;18.218;2024-01-16T03:12:22;0.00;;;0.00;;
75550;SDS011;65071;53.082;18.218;2024-01-16T03:14:48;0.30;;;0.30;;
75550;SDS011;65071;53.082;18.218;2024-01-16T03:17:15;2.40;;;0.20;;
75550;SDS011;65071;53.082;18.218;2024-01-16T03:19:42;0.50;;;0.20;;
75550;SDS011;65071;53.082;18.218;2024-01-16T03:22:10;1.30;;;0.40;;
75550;SDS011;65071;53.082;18.218;2024-01-16T03:24:36;1.50;;;0.40;;
75550;SDS011;65071;53.082;18.218;2024-01-16T03:27:02;0.80;;;0.40;;
75550;SDS011;65071;53.082;18.218;2024-01-16T03:29:30;0.30;;;0.20;;
75550;SDS011;65071;53.082;18.218;2024-01-16T03:31:57;1.20;;;0.30;;
75550;SDS011;65071;53.082;18.218;2024-01-16T03:34:23;2.40;;;0.40;;
75550;SDS011;65071;53.082;18.218;2024-01-16T03:36:50;2.80;;;0.30;;
75550;SDS011;65071;53.082;18.218;2024-01-16T03:39:16;1.70;;;0.20;;
75550;SDS011;65071;53.082;18.218;2024-01-16T03:41:43;0.90;;;0.30;;
75550;SDS011;65071;53.082;18.218;2024-01-16T03:44:09;1.30;;;0.30;;
75550;SDS011;65071;53.082;18.218;2024-01-16T03:46:35;0.30;;;0.10;;
75550;SDS011;65071;53.082;18.218;2024-01-16T03:49:02;0.40;;;0.30;;
75550;SDS011;65071;53.082;18.218;2024-01-16T03:51:28;0.40;;;0.30;;
75550;SDS011;65071;53.082;18.218;2024-01-16T03:53:54;0.10;;;0.10;;
75550;SDS011;65071;53.082;18.218;2024-01-16T03:56:22;0.70;;;0.40;;
75550;SDS011;65071;53.082;18.218;2024-01-16T03:58:48;2.40;;;0.30;;
75550;SDS011;65071;53.082;18.218;2024-01-16T04:01:15;1.30;;;0.30;;
75550;SDS011;65071;53.082;18.218;2024-01-16T04:03:41;0.30;;;0.20;;
75550;SDS011;65071;53.082;18.218;2024-01-16T04:06:17;1.00;;;0.30;;
75550;SDS011;65071;53.082;18.218;2024-01-16T04:08:44;0.90;;;0.20;;
75550;SDS011;65071;53.082;18.218;2024-01-16T04:11:14;1.50;;;0.30;;
75550;SDS011;65071;53.082;18.218;2024-01-16T04:13:41;1.40;;;0.50;;
75550;SDS011;65071;53.082;18.218;2024-01-16T04:16:08;2.50;;;0.20;;
75550;SDS011;65071;53.082;18.218;2024-01-16T04:18:39;0.10;;;0.10;;
75550;SDS011;65071;53.082;18.218;2024-01-16T04:21:06;0.60;;;0.20;;
75550;SDS011;65071;53.082;18.218;2024-01-16T04:23:33;2.80;;;0.60;;
75550;SDS011;65071;53.082;18.218;2024-01-16T04:25:59;2.30;;;0.70;;
75550;SDS011;65071;53.082;18.218;2024-01-16T04:28:26;2.80;;;0.60;;
75550;SDS011;65071;53.082;18.218;2024-01-16T04:30:52;3.60;;;0.90;;
75550;SDS011;65071;53.082;18.218;2024-01-16T04:33:18;3.40;;;0.70;;
75550;SDS011;65071;53.082;18.218;2024-01-16T04:35:45;0.70;;;0.40;;
75550;SDS011;65071;53.082;18.218;2024-01-16T04:38:12;2.70;;;0.60;;
75550;SDS011;65071;53.082;18.218;2024-01-16T04:40:38;0.70;;;0.30;;
75550;SDS011;65071;53.082;18.218;2024-01-16T04:43:05;1.90;;;0.50;;
75550;SDS011;65071;53.082;18.218;2024-01-16T04:45:31;0.80;;;0.40;;
75550;SDS011;65071;53.082;18.218;2024-01-16T04:47:57;2.10;;;0.80;;
75550;SDS011;65071;53.082;18.218;2024-01-16T04:50:24;2.70;;;0.70;;
75550;SDS011;65071;53.082;18.218;2024-01-16T04:52:57;2.80;;;0.90;;
75550;SDS011;65071;53.082;18.218;2024-01-16T04:55:26;1.60;;;0.40;;
75550;SDS011;65071;53.082;18.218;2024-01-16T04:57:54;1.50;;;0.40;;
75550;SDS011;65071;53.082;18.218;2024-01-16T05:00:20;1.50;;;0.40;;
75550;SDS011;65071;53.082;18.218;2024-01-16T05:02:47;5.90;;;0.60;;
75550;SDS011;65071;53.082;18.218;2024-01-16T05:05:14;1.40;;;0.40;;
75550;SDS011;65071;53.082;18.218;2024-01-16T05:07:40;1.90;;;0.60;;
75550;SDS011;65071;53.082;18.218;2024-01-16T05:10:09;1.40;;;0.50;;
75550;SDS011;65071;53.082;18.218;2024-01-16T05:12:39;2.50;;;1.00;;
75550;SDS011;65071;53.082;18.218;2024-01-16T05:15:06;0.80;;;0.40;;
75550;SDS011;65071;53.082;18.218;2024-01-16T05:17:33;1.80;;;1.00;;
75550;SDS011;65071;53.082;18.218;2024-01-16T05:20:01;0.70;;;0.20;;
75550;SDS011;65071;53.082;18.218;2024-01-16T05:22:30;0.30;;;0.20;;
75550;SDS011;65071;53.082;18.218;2024-01-16T05:24:56;0.90;;;0.60;;
75550;SDS011;65071;53.082;18.218;2024-01-16T05:27:23;1.70;;;0.60;;
75550;SDS011;65071;53.082;18.218;2024-01-16T05:29:50;1.20;;;0.30;;
75550;SDS011;65071;53.082;18.218;2024-01-16T05:32:17;1.00;;;0.40;;
75550;SDS011;65071;53.082;18.218;2024-01-16T05:34:43;3.00;;;0.90;;
75550;SDS011;65071;53.082;18.218;2024-01-16T05:37:09;2.30;;;1.00;;
75550;SDS011;65071;53.082;18.218;2024-01-16T05:39:37;5.90;;;2.10;;
75550;SDS011;65071;53.082;18.218;2024-01-16T05:42:03;6.70;;;2.40;;
75550;SDS011;65071;53.082;18.218;2024-01-16T05:44:30;8.70;;;2.10;;
75550;SDS011;65071;53.082;18.218;2024-01-16T05:46:56;7.00;;;1.90;;
75550;SDS011;65071;53.082;18.218;2024-01-16T05:49:22;4.60;;;1.60;;
75550;SDS011;65071;53.082;18.218;2024-01-16T05:51:49;5.90;;;1.40;;
75550;SDS011;65071;53.082;18.218;2024-01-16T05:54:15;4.90;;;1.00;;
75550;SDS011;65071;53.082;18.218;2024-01-16T05:56:42;1.70;;;0.90;;
75550;SDS011;65071;53.082;18.218;2024-01-16T05:59:08;5.80;;;1.50;;
75550;SDS011;65071;53.082;18.218;2024-01-16T06:01:35;2.40;;;1.20;;
75550;SDS011;65071;53.082;18.218;2024-01-16T06:04:01;5.60;;;1.20;;
75550;SDS011;65071;53.082;18.218;2024-01-16T06:06:27;4.50;;;1.30;;
75550;SDS011;65071;53.082;18.218;2024-01-16T06:08:54;2.90;;;0.80;;
75550;SDS011;65071;53.082;18.218;2024-01-16T06:14:00;3.10;;;1.00;;
75550;SDS011;65071;53.082;18.218;2024-01-16T06:16:27;1.90;;;0.80;;
75550;SDS011;65071;53.082;18.218;2024-01-16T06:18:53;2.60;;;0.90;;
75550;SDS011;65071;53.082;18.218;2024-01-16T06:21:20;3.90;;;1.20;;
75550;SDS011;65071;53.082;18.218;2024-01-16T06:23:46;4.00;;;1.00;;
75550;SDS011;65071;53.082;18.218;2024-01-16T06:26:12;6.70;;;1.70;;
75550;SDS011;65071;53.082;18.218;2024-01-16T06:28:39;8.40;;;2.40;;
75550;SDS011;65071;53.082;18.218;2024-01-16T06:31:09;10.90;;;3.70;;
75550;SDS011;65071;53.082;18.218;2024-01-16T06:33:36;9.50;;;2.80;;
75550;SDS011;65071;53.082;18.218;2024-01-16T06:36:03;7.10;;;2.70;;
75550;SDS011;65071;53.082;18.218;2024-01-16T06:38:30;8.70;;;3.00;;
75550;SDS011;65071;53.082;18.218;2024-01-16T06:40:57;12.40;;;2.80;;
75550;SDS011;65071;53.082;18.218;2024-01-16T06:43:24;5.20;;;2.10;;
75550;SDS011;65071;53.082;18.218;2024-01-16T06:45:50;10.10;;;3.70;;
75550;SDS011;65071;53.082;18.218;2024-01-16T06:48:17;12.10;;;3.40;;
75550;SDS011;65071;53.082;18.218;2024-01-16T06:50:43;12.70;;;4.80;;
75550;SDS011;65071;53.082;18.218;2024-01-16T06:53:10;33.50;;;10.30;;
75550;SDS011;65071;53.082;18.218;2024-01-16T06:55:36;71.90;;;21.60;;
75550;SDS011;65071;53.082;18.218;2024-01-16T06:58:02;59.80;;;17.10;;
75550;SDS011;65071;53.082;18.218;2024-01-16T07:00:29;20.40;;;7.00;;
75550;SDS011;65071;53.082;18.218;2024-01-16T07:02:56;11.40;;;4.00;;
75550;SDS011;65071;53.082;18.218;2024-01-16T07:05:22;10.60;;;2.80;;
75550;SDS011;65071;53.082;18.218;2024-01-16T07:07:49;8.20;;;2.70;;
75550;SDS011;65071;53.082;18.218;2024-01-16T07:10:16;8.80;;;3.30;;
75550;SDS011;65071;53.082;18.218;2024-01-16T07:12:45;11.80;;;4.90;;
75550;SDS011;65071;53.082;18.218;2024-01-16T07:15:11;7.10;;;4.00;;
75550;SDS011;65071;53.082;18.218;2024-01-16T07:17:39;6.90;;;3.50;;
75550;SDS011;65071;53.082;18.218;2024-01-16T07:20:05;5.80;;;2.70;;
75550;SDS011;65071;53.082;18.218;2024-01-16T07:22:33;11.30;;;3.80;;
75550;SDS011;65071;53.082;18.218;2024-01-16T07:25:03;13.20;;;3.90;;
75550;SDS011;65071;53.082;18.218;2024-01-16T07:27:30;11.30;;;4.50;;
75550;SDS011;65071;53.082;18.218;2024-01-16T07:29:56;11.20;;;4.70;;
75550;SDS011;65071;53.082;18.218;2024-01-16T07:32:23;10.00;;;3.90;;
75550;SDS011;65071;53.082;18.218;2024-01-16T07:34:49;18.10;;;4.80;;
75550;SDS011;65071;53.082;18.218;2024-01-16T07:37:17;9.10;;;3.30;;
75550;SDS011;65071;53.082;18.218;2024-01-16T07:39:43;10.30;;;3.40;;
75550;SDS011;65071;53.082;18.218;2024-01-16T07:42:10;6.20;;;2.60;;
75550;SDS011;65071;53.082;18.218;2024-01-16T07:44:37;7.20;;;2.50;;
75550;SDS011;65071;53.082;18.218;2024-01-16T07:47:03;9.50;;;2.90;;
75550;SDS011;65071;53.082;18.218;2024-01-16T07:49:30;9.00;;;3.40;;
75550;SDS011;65071;53.082;18.218;2024-01-16T07:51:56;11.40;;;3.40;;
75550;SDS011;65071;53.082;18.218;2024-01-16T07:54:23;8.70;;;2.70;;
75550;SDS011;65071;53.082;18.218;2024-01-16T07:56:50;11.30;;;3.90;;
75550;SDS011;65071;53.082;18.218;2024-01-16T07:59:16;12.60;;;3.90;;
75550;SDS011;65071;53.082;18.218;2024-01-16T08:01:43;7.10;;;3.10;;
75550;SDS011;65071;53.082;18.218;2024-01-16T08:04:10;6.80;;;2.80;;
75550;SDS011;65071;53.082;18.218;2024-01-16T08:06:36;6.00;;;2.80;;
75550;SDS011;65071;53.082;18.218;2024-01-16T08:09:03;7.80;;;2.30;;
75550;SDS011;65071;53.082;18.218;2024-01-16T08:11:29;4.10;;;1.10;;
75550;SDS011;65071;53.082;18.218;2024-01-16T08:13:56;5.50;;;1.60;;
75550;SDS011;65071;53.082;18.218;2024-01-16T08:16:23;5.20;;;1.80;;
75550;SDS011;65071;53.082;18.218;2024-01-16T08:18:49;6.00;;;1.90;;
75550;SDS011;65071;53.082;18.218;2024-01-16T08:21:15;4.40;;;1.80;;
75550;SDS011;65071;53.082;18.218;2024-01-16T08:23:42;5.60;;;2.50;;
75550;SDS011;65071;53.082;18.218;2024-01-16T08:26:09;6.20;;;2.10;;
75550;SDS011;65071;53.082;18.218;2024-01-16T08:28:36;3.60;;;2.00;;
75550;SDS011;65071;53.082;18.218;2024-01-16T08:31:03;1.90;;;0.70;;
75550;SDS011;65071;53.082;18.218;2024-01-16T08:33:30;3.70;;;1.30;;
75550;SDS011;65071;53.082;18.218;2024-01-16T08:35:57;7.80;;;2.70;;
75550;SDS011;65071;53.082;18.218;2024-01-16T08:38:24;7.20;;;2.50;;
75550;SDS011;65071;53.082;18.218;2024-01-16T08:40:50;4.90;;;2.20;;
75550;SDS011;65071;53.082;18.218;2024-01-16T08:43:16;6.90;;;2.60;;
75550;SDS011;65071;53.082;18.218;2024-01-16T08:45:43;4.10;;;1.70;;
75550;SDS011;65071;53.082;18.218;2024-01-16T08:48:09;4.40;;;1.90;;
75550;SDS011;65071;53.082;18.218;2024-01-16T08:50:36;3.30;;;1.10;;
75550;SDS011;65071;53.082;18.218;2024-01-16T08:53:02;4.90;;;2.00;;
75550;SDS011;65071;53.082;18.218;2024-01-16T08:55:29;3.90;;;1.90;;
75550;SDS011;65071;53.082;18.218;2024-01-16T08:57:56;3.40;;;1.20;;
75550;SDS011;65071;53.082;18.218;2024-01-16T09:00:23;2.60;;;1.10;;
75550;SDS011;65071;53.082;18.218;2024-01-16T09:02:49;2.80;;;0.80;;
75550;SDS011;65071;53.082;18.218;2024-01-16T09:05:15;5.90;;;1.50;;
75550;SDS011;65071;53.082;18.218;2024-01-16T09:07:42;4.10;;;1.50;;
75550;SDS011;65071;53.082;18.218;2024-01-16T09:10:08;3.70;;;1.10;;
75550;SDS011;65071;53.082;18.218;2024-01-16T09:12:35;4.40;;;1.70;;
75550;SDS011;65071;53.082;18.218;2024-01-16T09:15:01;4.50;;;1.50;;
75550;SDS011;65071;53.082;18.218;2024-01-16T09:17:28;3.70;;;1.20;;
75550;SDS011;65071;53.082;18.218;2024-01-16T09:19:55;3.20;;;1.30;;
75550;SDS011;65071;53.082;18.218;2024-01-16T09:22:26;6.00;;;1.90;;
75550;SDS011;65071;53.082;18.218;2024-01-16T09:24:53;0.50;;;0.50;;
75550;SDS011;65071;53.082;18.218;2024-01-16T09:27:19;2.00;;;0.80;;
75550;SDS011;65071;53.082;18.218;2024-01-16T09:29:46;5.30;;;1.70;;
75550;SDS011;65071;53.082;18.218;2024-01-16T09:32:12;7.50;;;2.20;;
75550;SDS011;65071;53.082;18.218;2024-01-16T09:34:39;5.40;;;1.60;;
75550;SDS011;65071;53.082;18.218;2024-01-16T09:37:05;3.80;;;1.60;;
75550;SDS011;65071;53.082;18.218;2024-01-16T09:39:32;6.60;;;1.80;;
75550;SDS011;65071;53.082;18.218;2024-01-16T09:42:00;4.00;;;1.60;;
75550;SDS011;65071;53.082;18.218;2024-01-16T09:44:30;6.60;;;2.20;;
75550;SDS011;65071;53.082;18.218;2024-01-16T09:46:57;3.80;;;1.30;;
75550;SDS011;65071;53.082;18.218;2024-01-16T09:49:25;2.50;;;0.90;;
75550;SDS011;65071;53.082;18.218;2024-01-16T09:51:52;2.00;;;0.80;;
75550;SDS011;65071;53.082;18.218;2024-01-16T09:54:19;1.60;;;0.70;;
75550;SDS011;65071;53.082;18.218;2024-01-16T09:56:46;4.30;;;1.00;;
75550;SDS011;65071;53.082;18.218;2024-01-16T09:59:17;2.70;;;1.10;;
75550;SDS011;65071;53.082;18.218;2024-01-16T10:01:44;3.50;;;1.50;;
75550;SDS011;65071;53.082;18.218;2024-01-16T10:04:11;4.20;;;1.20;;
75550;SDS011;65071;53.082;18.218;2024-01-16T10:06:39;3.50;;;1.30;;
75550;SDS011;65071;53.082;18.218;2024-01-16T10:09:12;4.80;;;1.20;;
75550;SDS011;65071;53.082;18.218;2024-01-16T10:11:39;2.30;;;1.20;;
75550;SDS011;65071;53.082;18.218;2024-01-16T10:14:06;2.40;;;0.80;;
75550;SDS011;65071;53.082;18.218;2024-01-16T10:19:27;2.30;;;0.80;;
75550;SDS011;65071;53.082;18.218;2024-01-16T10:22:00;3.10;;;1.20;;
75550;SDS011;65071;53.082;18.218;2024-01-16T10:24:30;2.70;;;1.10;;
75550;SDS011;65071;53.082;18.218;2024-01-16T10:26:57;3.50;;;1.10;;
75550;SDS011;65071;53.082;18.218;2024-01-16T10:29:26;2.60;;;1.10;;
75550;SDS011;65071;53.082;18.218;2024-01-16T10:31:53;2.30;;;0.80;;
75550;SDS011;65071;53.082;18.218;2024-01-16T10:34:20;1.70;;;0.90;;
75550;SDS011;65071;53.082;18.218;2024-01-16T10:36:51;0.80;;;0.60;;
75550;SDS011;65071;53.082;18.218;2024-01-16T10:39:25;2.30;;;0.90;;
75550;SDS011;65071;53.082;18.218;2024-01-16T10:41:56;2.30;;;0.60;;
75550;SDS011;65071;53.082;18.218;2024-01-16T10:44:23;3.60;;;1.00;;
75550;SDS011;65071;53.082;18.218;2024-01-16T10:46:49;2.00;;;0.70;;
75550;SDS011;65071;53.082;18.218;2024-01-16T10:49:16;3.60;;;1.50;;
75550;SDS011;65071;53.082;18.218;2024-01-16T10:51:42;3.50;;;1.30;;
75550;SDS011;65071;53.082;18.218;2024-01-16T10:54:12;3.30;;;1.00;;
75550;SDS011;65071;53.082;18.218;2024-01-16T10:56:43;1.90;;;0.90;;
75550;SDS011;65071;53.082;18.218;2024-01-16T10:59:16;2.90;;;1.10;;
75550;SDS011;65071;53.082;18.218;2024-01-16T11:01:47;2.40;;;0.90;;
75550;SDS011;65071;53.082;18.218;2024-01-16T11:04:14;3.80;;;1.20;;
75550;SDS011;65071;53.082;18.218;2024-01-16T11:06:41;3.60;;;0.90;;
75550;SDS011;65071;53.082;18.218;2024-01-16T11:09:08;2.30;;;0.90;;
75550;SDS011;65071;53.082;18.218;2024-01-16T11:11:35;6.30;;;1.60;;
75550;SDS011;65071;53.082;18.218;2024-01-16T11:14:04;3.60;;;1.20;;
75550;SDS011;65071;53.082;18.218;2024-01-16T11:16:32;1.60;;;0.70;;
75550;SDS011;65071;53.082;18.218;2024-01-16T11:18:58;4.40;;;1.40;;
75550;SDS011;65071;53.082;18.218;2024-01-16T11:21:25;3.10;;;1.00;;
75550;SDS011;65071;53.082;18.218;2024-01-16T11:23:52;2.60;;;1.30;;
75550;SDS011;65071;53.082;18.218;2024-01-16T11:28:58;1.30;;;0.60;;
75550;SDS011;65071;53.082;18.218;2024-01-16T11:31:33;2.40;;;1.00;;
75550;SDS011;65071;53.082;18.218;2024-01-16T11:34:00;3.40;;;1.20;;
75550;SDS011;65071;53.082;18.218;2024-01-16T11:36:42;3.60;;;1.10;;
75550;SDS011;65071;53.082;18.218;2024-01-16T11:39:19;2.70;;;1.00;;
75550;SDS011;65071;53.082;18.218;2024-01-16T11:44:43;4.80;;;1.10;;
75550;SDS011;65071;53.082;18.218;2024-01-16T11:47:19;2.90;;;1.00;;
75550;SDS011;65071;53.082;18.218;2024-01-16T11:49:47;5.50;;;1.80;;
75550;SDS011;65071;53.082;18.218;2024-01-16T11:52:38;5.40;;;2.00;;
75550;SDS011;65071;53.082;18.218;2024-01-16T12:00:45;3.60;;;1.60;;
75550;SDS011;65071;53.082;18.218;2024-01-16T12:03:18;5.40;;;1.10;;
75550;SDS011;65071;53.082;18.218;2024-01-16T12:05:56;7.70;;;2.10;;
75550;SDS011;65071;53.082;18.218;2024-01-16T12:08:28;5.40;;;1.60;;
75550;SDS011;65071;53.082;18.218;2024-01-16T12:10:55;7.10;;;2.00;;
75550;SDS011;65071;53.082;18.218;2024-01-16T12:13:21;9.80;;;2.40;;
75550;SDS011;65071;53.082;18.218;2024-01-16T12:15:48;8.30;;;2.50;;
75550;SDS011;65071;53.082;18.218;2024-01-16T12:18:25;16.70;;;3.50;;
75550;SDS011;65071;53.082;18.218;2024-01-16T12:20:51;14.10;;;3.50;;
75550;SDS011;65071;53.082;18.218;2024-01-16T12:23:18;11.70;;;2.70;;
75550;SDS011;65071;53.082;18.218;2024-01-16T12:25:46;13.70;;;3.10;;
75550;SDS011;65071;53.082;18.218;2024-01-16T12:28:13;8.10;;;2.20;;
75550;SDS011;65071;53.082;18.218;2024-01-16T12:30:48;8.10;;;2.40;;
75550;SDS011;65071;53.082;18.218;2024-01-16T12:33:15;5.40;;;1.90;;
75550;SDS011;65071;53.082;18.218;2024-01-16T12:35:43;6.70;;;2.30;;
75550;SDS011;65071;53.082;18.218;2024-01-16T12:38:11;7.20;;;2.50;;
75550;SDS011;65071;53.082;18.218;2024-01-16T12:40:39;11.90;;;3.30;;
75550;SDS011;65071;53.082;18.218;2024-01-16T12:43:15;6.50;;;1.60;;
75550;SDS011;65071;53.082;18.218;2024-01-16T12:45:42;16.60;;;6.90;;
75550;SDS011;65071;53.082;18.218;2024-01-16T12:48:11;16.90;;;4.50;;
75550;SDS011;65071;53.082;18.218;2024-01-16T12:50:38;13.30;;;2.70;;
75550;SDS011;65071;53.082;18.218;2024-01-16T12:53:05;11.10;;;2.80;;
75550;SDS011;65071;53.082;18.218;2024-01-16T12:55:34;3.00;;;0.90;;
75550;SDS011;65071;53.082;18.218;2024-01-16T13:00:46;11.60;;;3.10;;
75550;SDS011;65071;53.082;18.218;2024-01-16T13:03:21;9.20;;;1.90;;
75550;SDS011;65071;53.082;18.218;2024-01-16T13:05:56;8.50;;;2.10;;
75550;SDS011;65071;53.082;18.218;2024-01-16T13:08:24;6.20;;;1.70;;
75550;SDS011;65071;53.082;18.218;2024-01-16T13:11:01;6.00;;;1.60;;
75550;SDS011;65071;53.082;18.218;2024-01-16T13:13:32;2.00;;;1.20;;
75550;SDS011;65071;53.082;18.218;2024-01-16T13:15:59;2.20;;;1.20;;
75550;SDS011;65071;53.082;18.218;2024-01-16T13:18:26;3.20;;;1.00;;
75550;SDS011;65071;53.082;18.218;2024-01-16T13:20:55;2.10;;;0.90;;
75550;SDS011;65071;53.082;18.218;2024-01-16T13:23:23;4.00;;;1.40;;
75550;SDS011;65071;53.082;18.218;2024-01-16T13:25:51;2.10;;;0.90;;
75550;SDS011;65071;53.082;18.218;2024-01-16T13:28:18;2.80;;;1.10;;
75550;SDS011;65071;53.082;18.218;2024-01-16T13:30:46;1.60;;;0.80;;
75550;SDS011;65071;53.082;18.218;2024-01-16T13:33:14;0.90;;;0.60;;
75550;SDS011;65071;53.082;18.218;2024-01-16T13:35:46;2.20;;;1.10;;
75550;SDS011;65071;53.082;18.218;2024-01-16T13:38:13;3.30;;;1.20;;
75550;SDS011;65071;53.082;18.218;2024-01-16T13:40:43;7.30;;;3.40;;
75550;SDS011;65071;53.082;18.218;2024-01-16T13:43:09;6.20;;;3.10;;
75550;SDS011;65071;53.082;18.218;2024-01-16T13:45:35;8.40;;;2.60;;
75550;SDS011;65071;53.082;18.218;2024-01-16T13:48:02;3.10;;;1.50;;
75550;SDS011;65071;53.082;18.218;2024-01-16T13:50:28;6.00;;;1.70;;
75550;SDS011;65071;53.082;18.218;2024-01-16T13:52:56;13.80;;;3.40;;
75550;SDS011;65071;53.082;18.218;2024-01-16T13:55:22;24.70;;;5.10;;
75550;SDS011;65071;53.082;18.218;2024-01-16T13:57:49;38.70;;;7.10;;
75550;SDS011;65071;53.082;18.218;2024-01-16T14:00:15;26.10;;;5.80;;
75550;SDS011;65071;53.082;18.218;2024-01-16T14:02:43;19.10;;;4.10;;
75550;SDS011;65071;53.082;18.218;2024-01-16T14:05:15;20.50;;;3.40;;
75550;SDS011;65071;53.082;18.218;2024-01-16T14:07:47;13.40;;;2.90;;
75550;SDS011;65071;53.082;18.218;2024-01-16T14:10:17;19.30;;;4.70;;
75550;SDS011;65071;53.082;18.218;2024-01-16T14:12:46;18.60;;;3.60;;
75550;SDS011;65071;53.082;18.218;2024-01-16T14:15:14;11.30;;;2.50;;
75550;SDS011;65071;53.082;18.218;2024-01-16T14:17:43;7.40;;;1.50;;
75550;SDS011;65071;53.082;18.218;2024-01-16T14:20:10;15.90;;;3.80;;
75550;SDS011;65071;53.082;18.218;2024-01-16T14:22:38;9.00;;;2.80;;
75550;SDS011;65071;53.082;18.218;2024-01-16T14:25:06;12.50;;;2.60;;
75550;SDS011;65071;53.082;18.218;2024-01-16T14:27:37;6.00;;;2.00;;
75550;SDS011;65071;53.082;18.218;2024-01-16T14:30:06;12.50;;;2.80;;
75550;SDS011;65071;53.082;18.218;2024-01-16T14:32:40;23.10;;;4.80;;
75550;SDS011;65071;53.082;18.218;2024-01-16T14:35:09;22.10;;;4.50;;
75550;SDS011;65071;53.082;18.218;2024-01-16T14:37:36;16.30;;;4.20;;
75550;SDS011;65071;53.082;18.218;2024-01-16T14:40:04;11.90;;;3.80;;
75550;SDS011;65071;53.082;18.218;2024-01-16T14:42:39;13.90;;;3.80;;
75550;SDS011;65071;53.082;18.218;2024-01-16T14:45:06;5.80;;;2.50;;
75550;SDS011;65071;53.082;18.218;2024-01-16T14:47:34;4.00;;;2.10;;
75550;SDS011;65071;53.082;18.218;2024-01-16T14:50:00;6.20;;;2.80;;
75550;SDS011;65071;53.082;18.218;2024-01-16T14:52:29;8.80;;;3.30;;
75550;SDS011;65071;53.082;18.218;2024-01-16T14:54:58;10.10;;;3.90;;